createdAt,value
2019-05-30T00:02:12.500Z,9.70
2019-05-30T00:06:23.254Z,9.60
2019-05-30T00:10:33.440Z,9.40
2019-05-30T00:14:43.721Z,9.30
2019-05-30T00:18:56.619Z,9.30
2019-05-30T00:23:06.878Z,9.40
2019-05-30T00:27:17.278Z,9.50
2019-05-30T00:31:27.574Z,9.50
2019-05-30T00:35:37.756Z,9.50
2019-05-30T00:39:47.951Z,9.40
2019-05-30T00:43:58.165Z,9.30
2019-05-30T00:48:09.423Z,9.20
2019-05-30T00:52:19.623Z,9.10
2019-05-30T00:56:29.927Z,8.90
2019-05-30T01:00:44.166Z,8.80
2019-05-30T01:04:56.959Z,8.70
2019-05-30T01:09:07.550Z,8.60
2019-05-30T01:13:17.847Z,8.60
2019-05-30T01:17:29.646Z,8.60
2019-05-30T01:21:40.878Z,8.50
2019-05-30T01:25:52.816Z,8.50
2019-05-30T01:30:05.630Z,8.50
2019-05-30T01:34:16.094Z,8.50
2019-05-30T01:38:26.956Z,8.50
2019-05-30T01:42:38.291Z,8.40
2019-05-30T01:46:48.481Z,8.30
2019-05-30T01:51:00.321Z,8.30
2019-05-30T01:55:10.932Z,8.20
2019-05-30T01:59:21.215Z,8.20
2019-05-30T02:03:33.345Z,8.10
2019-05-30T02:07:43.543Z,8.00
2019-05-30T02:11:53.735Z,7.90
2019-05-30T02:16:04.020Z,7.90
2019-05-30T02:20:14.756Z,7.90
2019-05-30T02:24:25.122Z,7.80
2019-05-30T02:28:35.446Z,7.90
2019-05-30T02:32:46.836Z,8.00
2019-05-30T02:36:58.571Z,8.00
2019-05-30T02:41:12.250Z,7.90
2019-05-30T02:45:23.787Z,7.90
2019-05-30T02:49:35.526Z,7.90
2019-05-30T02:53:45.766Z,7.80
2019-05-30T02:57:57.394Z,7.80
2019-05-30T03:02:12.369Z,7.80
2019-05-30T03:06:19.717Z,7.80
2019-05-30T03:10:30.981Z,7.80
2019-05-30T03:14:41.399Z,7.90
2019-05-30T03:18:52.266Z,7.80
2019-05-30T03:23:04.814Z,7.70
2019-05-30T03:27:14.478Z,7.70
2019-05-30T03:31:29.206Z,7.90
2019-05-30T03:35:42.901Z,8.20
2019-05-30T03:39:49.577Z,8.50
2019-05-30T03:44:00.053Z,8.80
2019-05-30T03:48:14.249Z,9.30
2019-05-30T03:52:27.677Z,9.80
2019-05-30T03:56:59.006Z,10.00
2019-05-30T04:01:14.815Z,10.10
2019-05-30T04:05:31.153Z,10.00
2019-05-30T04:09:43.994Z,10.10
2019-05-30T04:14:00.017Z,10.20
2019-05-30T04:18:12.519Z,10.40
2019-05-30T04:22:23.478Z,10.70
2019-05-30T04:26:33.905Z,11.20
2019-05-30T04:30:44.204Z,11.50
2019-05-30T04:34:54.440Z,11.70
2019-05-30T04:39:08.631Z,12.10
2019-05-30T04:43:20.217Z,12.30
2019-05-30T04:47:30.929Z,12.70
2019-05-30T04:51:41.274Z,13.00
2019-05-30T04:55:51.580Z,13.10
2019-05-30T05:00:03.522Z,13.30
2019-05-30T05:04:15.349Z,13.50
2019-05-30T05:08:25.728Z,14.00
2019-05-30T05:12:36.142Z,14.30
2019-05-30T05:16:46.503Z,14.60
2019-05-30T05:20:56.709Z,14.70
2019-05-30T05:25:07.989Z,14.90
2019-05-30T05:29:18.324Z,15.40
2019-05-30T05:33:28.560Z,14.80
2019-05-30T05:37:38.911Z,14.60
2019-05-30T05:41:49.250Z,14.60
2019-05-30T05:45:59.542Z,14.90
2019-05-30T05:50:10.562Z,15.20
2019-05-30T05:54:21.367Z,15.10
2019-05-30T05:58:31.688Z,15.50
2019-05-30T06:02:41.885Z,15.80
2019-05-30T06:06:52.189Z,15.90
2019-05-30T06:11:02.510Z,16.20
2019-05-30T06:15:12.986Z,16.90
2019-05-30T06:19:23.287Z,17.70
2019-05-30T06:23:33.791Z,17.70
2019-05-30T06:27:45.243Z,18.10
2019-05-30T06:31:55.535Z,18.40
2019-05-30T06:36:05.928Z,18.50
2019-05-30T06:40:17.046Z,18.30
2019-05-30T06:44:28.086Z,18.30
2019-05-30T06:48:38.515Z,18.40
2019-05-30T06:52:48.886Z,18.70
2019-05-30T06:56:59.190Z,18.80
2019-05-30T07:01:09.635Z,19.70
2019-05-30T07:05:22.921Z,19.50
2019-05-30T07:09:33.732Z,19.50
2019-05-30T07:13:44.052Z,19.30
2019-05-30T07:17:54.408Z,19.80
2019-05-30T07:22:05.244Z,19.90
2019-05-30T07:26:17.941Z,19.90
2019-05-30T07:30:28.321Z,19.60
2019-05-30T07:34:39.439Z,19.50
2019-05-30T07:38:49.843Z,20.10
2019-05-30T07:43:00.199Z,20.60
2019-05-30T07:47:10.506Z,20.30
2019-05-30T07:51:24.326Z,20.40
2019-05-30T07:55:33.187Z,19.90
2019-05-30T07:59:43.590Z,20.00
2019-05-30T08:03:53.927Z,20.50
2019-05-30T08:08:04.790Z,20.90
2019-05-30T08:12:15.253Z,21.00
2019-05-30T08:16:25.556Z,21.40
2019-05-30T08:20:35.985Z,21.50
2019-05-30T08:24:46.446Z,21.60
2019-05-30T08:28:56.833Z,21.80
2019-05-30T08:33:08.677Z,21.90
2019-05-30T08:37:19.067Z,22.00
2019-05-30T08:41:29.357Z,22.10
2019-05-30T08:45:40.030Z,22.30
2019-05-30T08:49:50.399Z,21.70
2019-05-30T08:54:00.711Z,22.00
2019-05-30T08:58:11.248Z,22.20
2019-05-30T09:02:21.817Z,22.90
2019-05-30T09:06:32.334Z,22.70
2019-05-30T09:10:42.717Z,22.80
2019-05-30T09:14:52.990Z,23.30
2019-05-30T09:19:03.388Z,23.30
2019-05-30T09:23:13.698Z,23.40
2019-05-30T09:27:23.970Z,23.70
2019-05-30T09:31:34.284Z,23.70
2019-05-30T09:35:44.961Z,23.70
2019-05-30T09:39:55.292Z,23.50
2019-05-30T09:44:05.772Z,23.30
2019-05-30T09:48:16.079Z,23.60
2019-05-30T09:52:26.379Z,23.50
2019-05-30T09:56:36.611Z,23.70
2019-05-30T10:00:50.292Z,24.00
2019-05-30T10:05:00.887Z,24.00
2019-05-30T10:09:12.171Z,24.00
2019-05-30T10:13:22.631Z,24.10
2019-05-30T10:17:32.821Z,24.30
2019-05-30T10:21:43.073Z,24.20
2019-05-30T10:25:53.858Z,24.60
2019-05-30T10:30:10.608Z,24.70
2019-05-30T10:34:20.940Z,24.60
2019-05-30T10:38:31.164Z,24.60
2019-05-30T10:42:41.536Z,24.40
2019-05-30T10:46:52.844Z,24.20
2019-05-30T10:51:03.263Z,24.30
2019-05-30T10:55:14.040Z,24.00
2019-05-30T10:59:24.416Z,24.00
2019-05-30T11:03:34.729Z,24.00
2019-05-30T11:08:05.553Z,23.80
2019-05-30T11:12:11.574Z,23.70
2019-05-30T11:16:21.871Z,24.20
2019-05-30T11:20:32.474Z,24.20
2019-05-30T11:24:42.919Z,24.10
2019-05-30T11:28:54.674Z,24.30
2019-05-30T11:33:05.980Z,23.90
2019-05-30T11:41:28.370Z,23.90
2019-05-30T11:45:38.984Z,23.80
2019-05-30T11:49:49.567Z,24.00
2019-05-30T11:54:01.036Z,24.00
2019-05-30T11:58:12.319Z,23.80
2019-05-30T12:02:24.294Z,24.10
2019-05-30T12:06:34.516Z,24.00
2019-05-30T12:10:44.821Z,23.90
2019-05-30T12:14:55.257Z,23.60
2019-05-30T12:19:05.504Z,23.20
2019-05-30T12:23:15.807Z,23.50
2019-05-30T12:27:26.196Z,23.70
2019-05-30T12:31:36.632Z,23.60
2019-05-30T12:35:46.984Z,23.50
2019-05-30T12:39:58.577Z,23.40
2019-05-30T12:44:09.236Z,23.10
2019-05-30T12:48:19.544Z,23.10
2019-05-30T12:52:30.715Z,23.20
2019-05-30T12:56:42.500Z,23.00
2019-05-30T13:00:54.622Z,22.80
2019-05-30T13:05:07.186Z,22.80
2019-05-30T13:09:17.553Z,22.80
2019-05-30T13:13:27.810Z,22.80
2019-05-30T13:17:38.037Z,23.00
2019-05-30T13:21:48.270Z,23.00
2019-05-30T13:25:59.568Z,23.00
2019-05-30T13:30:12.107Z,23.20
2019-05-30T13:34:22.422Z,23.50
2019-05-30T13:38:32.724Z,23.60
2019-05-30T13:42:43.151Z,23.40
2019-05-30T13:46:53.388Z,23.40
2019-05-30T13:51:04.780Z,23.30
2019-05-30T13:55:15.563Z,23.20
2019-05-30T13:59:25.806Z,23.40
2019-05-30T14:03:36.130Z,23.60
2019-05-30T14:07:46.612Z,23.90
2019-05-30T14:11:56.950Z,24.00
2019-05-30T14:16:09.082Z,24.00
2019-05-30T14:20:19.842Z,23.90
2019-05-30T14:24:30.142Z,23.60
2019-05-30T14:28:40.708Z,23.40
2019-05-30T14:32:51.178Z,23.60
2019-05-30T14:37:02.390Z,23.90
2019-05-30T14:41:13.499Z,24.20
2019-05-30T14:45:24.185Z,24.20
2019-05-30T14:49:34.528Z,24.10
2019-05-30T14:53:44.862Z,24.20
2019-05-30T14:57:58.008Z,24.30
2019-05-30T15:02:07.164Z,24.00
2019-05-30T15:06:17.897Z,23.80
2019-05-30T15:10:28.432Z,23.50
2019-05-30T15:14:38.724Z,23.50
2019-05-30T15:18:49.174Z,23.50
2019-05-30T15:22:59.359Z,23.40
2019-05-30T15:27:10.070Z,23.50
2019-05-30T15:31:20.372Z,23.60
2019-05-30T15:35:30.876Z,23.50
2019-05-30T15:39:41.326Z,23.20
2019-05-30T15:43:51.716Z,23.10
2019-05-30T15:48:02.087Z,22.80
2019-05-30T15:52:13.329Z,22.50
2019-05-30T15:56:23.565Z,22.40
2019-05-30T16:00:36.918Z,22.60
2019-05-30T16:04:46.744Z,22.60
2019-05-30T16:08:57.081Z,22.60
2019-05-30T16:13:07.424Z,22.80
2019-05-30T16:17:17.814Z,22.80
2019-05-30T16:21:28.228Z,22.80
2019-05-30T16:25:38.532Z,22.70
2019-05-30T16:29:48.878Z,22.60
2019-05-30T16:33:59.220Z,22.50
2019-05-30T16:38:09.606Z,22.50
2019-05-30T16:42:20.274Z,22.70
2019-05-30T16:46:30.745Z,22.70
2019-05-30T16:50:41.085Z,22.50
2019-05-30T16:54:51.410Z,22.20
2019-05-30T16:59:01.822Z,22.10
2019-05-30T17:03:12.283Z,22.10
2019-05-30T17:07:23.371Z,22.00
2019-05-30T17:11:33.945Z,22.00
2019-05-30T17:15:44.314Z,21.90
2019-05-30T17:19:54.632Z,21.90
2019-05-30T17:24:05.035Z,21.80
2019-05-30T17:28:15.485Z,21.70
2019-05-30T17:32:25.956Z,21.60
2019-05-30T17:36:36.340Z,21.60
2019-05-30T17:40:49.818Z,21.60
2019-05-30T17:45:00.216Z,21.40
2019-05-30T17:49:12.089Z,21.30
2019-05-30T17:53:23.594Z,21.30
2019-05-30T17:57:34.283Z,21.20
2019-05-30T18:01:44.568Z,21.10
2019-05-30T18:05:54.870Z,21.00
2019-05-30T18:10:07.584Z,20.90
2019-05-30T18:14:17.828Z,20.90
2019-05-30T18:18:29.241Z,20.80
2019-05-30T18:22:39.666Z,20.70
2019-05-30T18:26:50.018Z,20.70
2019-05-30T18:31:00.324Z,20.60
2019-05-30T18:35:11.777Z,20.50
2019-05-30T18:39:22.395Z,20.40
2019-05-30T18:43:33.027Z,20.30
2019-05-30T18:47:43.587Z,20.30
2019-05-30T18:51:54.681Z,20.20
2019-05-30T18:56:07.791Z,20.10
2019-05-30T19:00:18.599Z,20.10
2019-05-30T19:04:29.592Z,20.00
2019-05-30T19:08:40.013Z,19.90
2019-05-30T19:12:50.284Z,19.80
2019-05-30T19:17:00.586Z,19.70
2019-05-30T19:21:10.907Z,19.60
2019-05-30T19:25:22.901Z,19.50
2019-05-30T19:29:33.223Z,19.40
2019-05-30T19:33:43.569Z,19.30
2019-05-30T19:37:53.931Z,19.20
2019-05-30T19:42:04.324Z,19.10
2019-05-30T19:46:15.318Z,19.10
2019-05-30T19:50:26.148Z,19.00
2019-05-30T19:54:37.250Z,18.90
2019-05-30T19:58:47.574Z,18.80
2019-05-30T20:02:58.201Z,18.80
2019-05-30T20:07:08.495Z,18.70
2019-05-30T20:11:19.122Z,18.60
2019-05-30T20:15:29.495Z,18.60
2019-05-30T20:19:40.038Z,18.60
2019-05-30T20:23:56.515Z,18.50
2019-05-30T20:28:02.349Z,18.40
2019-05-30T20:32:12.892Z,18.30
2019-05-30T20:36:23.194Z,18.30
2019-05-30T20:40:34.816Z,18.20
2019-05-30T20:44:47.110Z,18.10
2019-05-30T20:48:57.534Z,18.00
2019-05-30T20:53:07.780Z,18.00
2019-05-30T20:57:18.161Z,18.00
2019-05-30T21:01:28.504Z,17.90
2019-05-30T21:05:39.933Z,17.90
2019-05-30T21:09:50.677Z,17.80
2019-05-30T21:14:02.923Z,17.80
2019-05-30T21:23:24.557Z,17.70
2019-05-30T21:27:34.872Z,17.60
2019-05-30T21:31:45.646Z,17.50
2019-05-30T21:35:55.968Z,17.50
2019-05-30T21:40:10.266Z,17.60
2019-05-30T21:44:20.666Z,17.70
2019-05-30T21:48:31.090Z,17.80
2019-05-30T21:52:41.579Z,17.80
2019-05-30T21:56:51.958Z,17.80
2019-05-30T22:01:20.742Z,17.80
2019-05-30T22:05:30.937Z,17.80
2019-05-30T22:09:41.350Z,17.80
2019-05-30T22:13:52.037Z,17.80
2019-05-30T22:18:03.638Z,17.90
2019-05-30T22:22:13.864Z,17.90
2019-05-30T22:26:24.160Z,17.90
2019-05-30T22:30:34.460Z,17.90
2019-05-30T22:34:44.792Z,17.90
2019-05-30T22:38:55.114Z,17.90
2019-05-30T22:43:05.483Z,17.90
2019-05-30T22:47:16.141Z,17.80
2019-05-30T22:51:27.609Z,17.90
2019-05-30T22:55:37.982Z,17.90
2019-05-30T22:59:48.827Z,17.90
2019-05-30T23:03:59.178Z,17.90
2019-05-30T23:08:09.433Z,17.90
2019-05-30T23:12:19.627Z,17.90
2019-05-30T23:16:29.841Z,17.90
2019-05-30T23:20:40.093Z,17.90
2019-05-30T23:24:52.278Z,17.90
2019-05-30T23:29:02.931Z,17.90
2019-05-30T23:33:13.124Z,18.00
2019-05-30T23:37:23.355Z,17.90
2019-05-30T23:41:33.834Z,18.00
2019-05-30T23:45:44.202Z,17.90
2019-05-30T23:49:55.851Z,18.00
2019-05-30T23:54:06.428Z,17.90
2019-05-30T23:58:16.767Z,18.00
